Time;durP1;ratioP1;P1;durP2;ratioP2;P2;SDS_P1;SDS_P2;PMS_P1;PMS_P2;Temp;Humidity;BMP_temperature;BMP_pressure;BME280_temperature;BME280_humidity;BME280_pressure;Samples;Min_cycle;Max_cycle;Signal;HPM_P1;HPM_P2
2021/05/23 00:01:02;;;;;;;7.20;3.15;;;;;13.80;100054.00;;;;5046755;28;20491;-67
2021/05/23 00:03:28;;;;;;;7.88;3.75;;;;;13.70;100049.00;;;;5046427;28;20068;-68
2021/05/23 00:05:55;;;;;;;11.02;3.38;;;;;13.70;100046.00;;;;5047056;28;20017;-68
2021/05/23 00:08:22;;;;;;;5.03;3.78;;;;;13.60;100060.00;;;;5045954;28;20089;-67
2021/05/23 00:10:57;;;;;;;7.90;4.10;;;;;13.50;100073.00;;;;5046567;28;20025;-67
2021/05/23 00:13:29;;;;;;;8.38;4.63;;;;;13.50;100064.00;;;;5046495;28;20020;-68
2021/05/23 00:16:00;;;;;;;4.90;3.55;;;;;13.40;100075.00;;;;5045650;28;20071;-67
2021/05/23 00:18:28;;;;;;;5.53;3.90;;;;;13.30;100078.00;;;;5046287;28;20429;-68
2021/05/23 00:20:55;;;;;;;6.90;3.95;;;;;13.20;100075.00;;;;5044366;28;20434;-68
2021/05/23 00:23:22;;;;;;;4.72;3.58;;;;;13.20;100065.00;;;;5045770;28;20074;-68
2021/05/23 00:25:51;;;;;;;6.63;3.65;;;;;13.20;100076.00;;;;5044377;28;20690;-67
2021/05/23 00:28:17;;;;;;;6.53;3.33;;;;;13.20;100081.00;;;;5046083;28;20025;-67
2021/05/23 00:30:44;;;;;;;7.63;3.50;;;;;13.30;100082.00;;;;5045945;28;20475;-67
2021/05/23 00:33:11;;;;;;;5.35;3.20;;;;;13.30;100095.00;;;;5046174;28;20071;-67
2021/05/23 00:35:38;;;;;;;5.05;3.00;;;;;13.30;100104.00;;;;5046015;28;20392;-67
2021/05/23 00:38:06;;;;;;;3.88;2.42;;;;;13.30;100107.00;;;;5045395;28;20060;-67
2021/05/23 00:40:34;;;;;;;6.82;3.10;;;;;13.40;100095.00;;;;5045140;28;20495;-67
2021/05/23 00:43:01;;;;;;;7.00;2.70;;;;;13.30;100106.00;;;;5045287;28;20033;-67
2021/05/23 00:45:27;;;;;;;3.83;3.38;;;;;13.30;100102.00;;;;5045184;28;20033;-68
2021/05/23 00:47:54;;;;;;;5.00;2.83;;;;;13.20;100106.00;;;;5044264;28;20053;-67
2021/05/23 00:50:24;;;;;;;8.23;2.90;;;;;13.20;100121.00;;;;5044341;28;20033;-67
2021/05/23 00:52:53;;;;;;;8.25;3.55;;;;;13.20;100115.00;;;;5044197;28;20021;-68
2021/05/23 00:55:21;;;;;;;6.93;3.25;;;;;13.30;100129.00;;;;5044359;28;20025;-67
2021/05/23 00:57:49;;;;;;;5.88;3.70;;;;;13.40;100131.00;;;;5046622;28;20388;-68
2021/05/23 01:00:41;;;;;;;5.30;3.65;;;;;13.60;100138.00;;;;5045047;28;20036;-68
2021/05/23 01:03:56;;;;;;;5.63;4.03;;;;;13.60;100154.00;;;;5025400;28;20045;-67
2021/05/23 01:06:23;;;;;;;10.13;4.80;;;;;13.70;100150.00;;;;5045361;28;20036;-67
2021/05/23 01:08:50;;;;;;;12.52;5.13;;;;;14.00;100153.00;;;;5045883;28;20067;-68
2021/05/23 01:11:16;;;;;;;8.07;4.45;;;;;14.00;100153.00;;;;5045162;28;20025;-68
2021/05/23 01:13:58;;;;;;;14.05;4.88;;;;;14.00;100147.00;;;;5044941;28;20601;-67
2021/05/23 01:16:39;;;;;;;8.63;5.05;;;;;13.90;100155.00;;;;5045235;28;20464;-68
2021/05/23 01:19:33;;;;;;;6.90;4.45;;;;;14.00;100152.00;;;;5045579;28;20025;-67
2021/05/23 01:22:18;;;;;;;11.90;4.72;;;;;13.90;100145.00;;;;5045346;28;20029;-68
2021/05/23 01:25:07;;;;;;;8.32;4.30;;;;;13.90;100154.00;;;;5045728;28;20021;-68
2021/05/23 01:27:37;;;;;;;7.38;3.63;;;;;13.70;100140.00;;;;5045409;28;20028;-67
2021/05/23 01:30:09;;;;;;;4.72;3.35;;;;;13.70;100143.00;;;;5044618;28;20031;-68
2021/05/23 01:32:43;;;;;;;6.63;3.30;;;;;13.60;100158.00;;;;5044594;28;20063;-70
2021/05/23 01:35:17;;;;;;;4.57;2.90;;;;;13.60;100158.00;;;;5045492;28;20492;-68
2021/05/23 01:37:55;;;;;;;6.32;3.08;;;;;13.60;100165.00;;;;5045630;28;20024;-68
2021/05/23 01:40:22;;;;;;;3.17;2.33;;;;;13.70;100170.00;;;;5047136;28;20029;-68
2021/05/23 01:42:49;;;;;;;3.92;2.80;;;;;13.60;100178.00;;;;5048518;28;20124;-68
2021/05/23 01:45:16;;;;;;;24.17;2.90;;;;;13.70;100176.00;;;;5049256;28;20091;-69
2021/05/23 01:47:44;;;;;;;8.25;3.17;;;;;13.70;100190.00;;;;5048709;28;20048;-68
2021/05/23 01:50:11;;;;;;;7.47;2.22;;;;;13.70;100179.00;;;;5048549;28;20502;-67
2021/05/23 01:52:50;;;;;;;3.17;2.38;;;;;13.70;100184.00;;;;5048859;28;20078;-67
2021/05/23 01:55:17;;;;;;;9.40;2.40;;;;;13.60;100192.00;;;;5048514;28;21020;-69
2021/05/23 01:57:44;;;;;;;3.40;2.38;;;;;13.60;100177.00;;;;5048774;28;20021;-68
2021/05/23 02:00:13;;;;;;;6.97;2.30;;;;;13.40;100178.00;;;;5048319;28;20025;-69
2021/05/23 02:02:40;;;;;;;4.75;2.28;;;;;13.30;100194.00;;;;5048600;28;20029;-69
2021/05/23 02:05:08;;;;;;;4.38;2.10;;;;;13.20;100194.00;;;;5047987;28;20628;-68
2021/05/23 02:07:35;;;;;;;7.47;2.22;;;;;13.20;100187.00;;;;5046802;28;20033;-69
2021/05/23 02:10:07;;;;;;;3.58;1.90;;;;;13.30;100203.00;;;;5048724;28;20029;-69
2021/05/23 02:12:34;;;;;;;4.22;1.90;;;;;13.20;100193.00;;;;5048500;28;20021;-69
2021/05/23 02:15:03;;;;;;;2.97;1.70;;;;;13.40;100196.00;;;;5048415;28;20033;-68
2021/05/23 02:17:33;;;;;;;2.00;1.65;;;;;13.40;100195.00;;;;5048236;28;20025;-69
2021/05/23 02:20:00;;;;;;;2.30;1.40;;;;;13.40;100196.00;;;;5048337;28;20480;-68
2021/05/23 02:22:26;;;;;;;2.45;1.45;;;;;13.50;100203.00;;;;5048535;28;20029;-68
2021/05/23 02:24:53;;;;;;;3.00;1.38;;;;;13.50;100200.00;;;;5048523;28;20031;-68
2021/05/23 02:27:19;;;;;;;6.43;1.20;;;;;13.30;100204.00;;;;5048049;28;20032;-69
2021/05/23 02:29:46;;;;;;;4.57;3.95;;;;;13.30;100223.00;;;;5048044;28;20055;-68
2021/05/23 02:32:12;;;;;;;4.30;1.08;;;;;13.10;100216.00;;;;5047654;28;20029;-69
2021/05/23 02:34:47;;;;;;;7.80;1.67;;;;;13.00;100207.00;;;;5048350;28;20449;-68
2021/05/23 02:37:14;;;;;;;2.17;1.40;;;;;13.10;100208.00;;;;5048870;28;20070;-69
2021/05/23 02:39:40;;;;;;;2.38;1.48;;;;;13.00;100213.00;;;;5048108;28;20032;-68
2021/05/23 02:42:07;;;;;;;3.13;1.30;;;;;13.20;100201.00;;;;5047894;28;20027;-69
2021/05/23 02:44:33;;;;;;;1.35;1.00;;;;;13.20;100199.00;;;;5047742;28;20072;-69
2021/05/23 02:47:01;;;;;;;1.67;1.05;;;;;13.20;100205.00;;;;5047101;28;20095;-68
2021/05/23 02:49:28;;;;;;;1.92;1.10;;;;;13.10;100209.00;;;;5047401;28;20100;-68
2021/05/23 02:51:55;;;;;;;3.13;0.93;;;;;13.20;100215.00;;;;5048546;28;20028;-69
2021/05/23 02:54:21;;;;;;;1.60;0.90;;;;;13.30;100223.00;;;;5046538;28;20091;-67
2021/05/23 02:56:48;;;;;;;1.08;0.85;;;;;13.30;100217.00;;;;5048290;28;20032;-68
2021/05/23 02:59:15;;;;;;;2.50;1.13;;;;;13.30;100213.00;;;;5047815;28;20021;-68
2021/05/23 03:01:41;;;;;;;3.30;1.10;;;;;13.20;100213.00;;;;5047353;28;20021;-68
2021/05/23 03:04:08;;;;;;;2.75;0.70;;;;;13.40;100218.00;;;;5047166;28;20021;-67
2021/05/23 03:06:34;;;;;;;0.90;0.60;;;;;13.40;100225.00;;;;5046690;28;20028;-68
2021/05/23 03:09:01;;;;;;;2.65;1.08;;;;;13.50;100214.00;;;;5047342;28;20483;-69
2021/05/23 03:11:27;;;;;;;2.55;1.05;;;;;13.60;100225.00;;;;5047362;28;20021;-68
2021/05/23 03:13:54;;;;;;;0.88;0.80;;;;;13.60;100223.00;;;;5047543;28;20634;-68
2021/05/23 03:16:20;;;;;;;1.23;0.80;;;;;13.50;100221.00;;;;5047141;28;20071;-69
2021/05/23 03:18:47;;;;;;;1.55;0.90;;;;;13.50;100227.00;;;;5047439;28;20024;-69
2021/05/23 03:21:15;;;;;;;1.58;0.70;;;;;13.50;100215.00;;;;5047518;28;20410;-68
2021/05/23 03:23:42;;;;;;;1.65;0.95;;;;;13.50;100225.00;;;;5047019;28;20055;-68
2021/05/23 03:26:08;;;;;;;1.15;0.90;;;;;13.50;100215.00;;;;5047094;28;20044;-69
2021/05/23 03:28:35;;;;;;;1.35;0.80;;;;;13.40;100210.00;;;;5046887;28;20491;-68
2021/05/23 03:31:01;;;;;;;1.63;0.95;;;;;13.30;100211.00;;;;5046834;28;20079;-69
2021/05/23 03:33:28;;;;;;;1.50;0.80;;;;;13.30;100211.00;;;;5047071;28;20037;-69
2021/05/23 03:35:54;;;;;;;2.58;0.70;;;;;13.30;100215.00;;;;5047151;28;20029;-67
2021/05/23 03:38:21;;;;;;;3.13;0.93;;;;;13.30;100204.00;;;;5047116;28;20029;-69
2021/05/23 03:40:47;;;;;;;4.55;0.93;;;;;13.30;100206.00;;;;5046605;28;20032;-68
2021/05/23 03:43:14;;;;;;;7.35;0.80;;;;;13.20;100215.00;;;;5047308;28;20353;-69
2021/05/23 03:45:41;;;;;;;0.98;0.80;;;;;13.10;100224.00;;;;5046291;28;20021;-69
2021/05/23 03:48:09;;;;;;;1.35;1.00;;;;;13.00;100224.00;;;;5046417;28;20049;-69
2021/05/23 03:50:35;;;;;;;1.38;0.98;;;;;12.90;100210.00;;;;5046897;28;20041;-68
2021/05/23 03:53:02;;;;;;;3.92;1.20;;;;;12.90;100213.00;;;;5046796;28;20441;-68
2021/05/23 03:55:29;;;;;;;4.32;0.90;;;;;12.80;100212.00;;;;5046383;28;20044;-69
2021/05/23 03:57:57;;;;;;;3.75;0.90;;;;;12.70;100212.00;;;;5046152;28;20044;-68
2021/05/23 04:00:24;;;;;;;4.93;1.10;;;;;12.60;100201.00;;;;5045694;28;20021;-67
2021/05/23 04:02:53;;;;;;;2.40;1.08;;;;;12.50;100194.00;;;;5046354;28;20427;-68
2021/05/23 04:05:24;;;;;;;7.28;1.25;;;;;12.40;100198.00;;;;5046649;28;20025;-67
2021/05/23 04:07:51;;;;;;;1.00;0.80;;;;;12.50;100193.00;;;;5044626;28;20051;-69
2021/05/23 04:10:21;;;;;;;1.88;0.82;;;;;12.40;100189.00;;;;5046268;28;20031;-69
2021/05/23 04:12:49;;;;;;;1.33;0.80;;;;;12.40;100185.00;;;;5046185;28;20593;-69
2021/05/23 04:15:18;;;;;;;4.88;1.00;;;;;12.40;100195.00;;;;5046690;28;20035;-68
2021/05/23 04:17:45;;;;;;;1.73;0.75;;;;;12.30;100197.00;;;;5044707;28;20029;-67
2021/05/23 04:20:13;;;;;;;3.33;0.85;;;;;12.30;100206.00;;;;5046399;28;20025;-67
2021/05/23 04:22:41;;;;;;;3.03;1.00;;;;;12.30;100187.00;;;;5046021;28;20107;-68
2021/05/23 04:25:12;;;;;;;2.33;0.68;;;;;12.40;100201.00;;;;5045591;28;20041;-69
2021/05/23 04:27:43;;;;;;;0.65;0.65;;;;;12.30;100195.00;;;;5045547;28;20033;-69
2021/05/23 04:30:11;;;;;;;2.15;0.82;;;;;12.40;100181.00;;;;5046394;28;20146;-69
2021/05/23 04:32:38;;;;;;;1.05;0.80;;;;;12.40;100178.00;;;;5046165;28;20060;-70
2021/05/23 04:35:06;;;;;;;0.45;0.45;;;;;12.40;100181.00;;;;5046045;28;20033;-68
2021/05/23 04:37:33;;;;;;;0.60;0.60;;;;;12.30;100186.00;;;;5045873;28;20059;-68
2021/05/23 04:39:59;;;;;;;1.05;0.70;;;;;12.30;100193.00;;;;5045613;28;20463;-69
2021/05/23 04:42:26;;;;;;;2.35;0.55;;;;;12.20;100190.00;;;;5045789;28;20021;-69
2021/05/23 04:44:53;;;;;;;0.98;0.63;;;;;12.40;100198.00;;;;5045693;28;20021;-68
2021/05/23 04:47:19;;;;;;;0.50;0.50;;;;;12.60;100192.00;;;;5045397;28;20056;-67
2021/05/23 04:49:46;;;;;;;0.50;0.30;;;;;12.50;100179.00;;;;5045596;28;20017;-69
2021/05/23 04:52:13;;;;;;;0.50;0.50;;;;;12.50;100186.00;;;;5046330;28;20454;-68
2021/05/23 04:54:41;;;;;;;0.65;0.50;;;;;12.60;100174.00;;;;5045247;28;20119;-68
2021/05/23 04:57:08;;;;;;;0.52;0.47;;;;;12.60;100173.00;;;;5045418;28;20053;-69
2021/05/23 04:59:34;;;;;;;2.53;0.65;;;;;12.60;100167.00;;;;5045752;28;20092;-68
2021/05/23 05:02:02;;;;;;;0.93;0.40;;;;;12.70;100179.00;;;;5045541;28;20025;-68
2021/05/23 05:04:29;;;;;;;2.92;0.60;;;;;12.70;100176.00;;;;5045491;28;20021;-69
2021/05/23 05:06:56;;;;;;;1.88;0.50;;;;;12.70;100170.00;;;;5045520;28;20159;-69
2021/05/23 05:09:22;;;;;;;3.00;0.60;;;;;12.80;100171.00;;;;5048374;28;20040;-67
2021/05/23 05:11:49;;;;;;;0.60;0.50;;;;;12.90;100167.00;;;;5049933;28;20104;-69
2021/05/23 05:14:16;;;;;;;2.30;0.50;;;;;12.80;100161.00;;;;5050166;28;20029;-69
2021/05/23 05:16:42;;;;;;;0.63;0.38;;;;;12.90;100162.00;;;;5049775;28;20048;-68
2021/05/23 05:19:09;;;;;;;1.30;0.50;;;;;13.10;100169.00;;;;5049608;28;20029;-68
2021/05/23 05:21:36;;;;;;;1.58;0.63;;;;;13.10;100174.00;;;;5049420;28;20025;-70
2021/05/23 05:24:03;;;;;;;0.32;0.30;;;;;13.00;100167.00;;;;5049481;28;20032;-70
2021/05/23 05:26:30;;;;;;;0.60;0.38;;;;;13.00;100168.00;;;;5049088;28;20078;-67
2021/05/23 05:28:56;;;;;;;0.43;0.43;;;;;13.10;100178.00;;;;5049091;28;20013;-69
2021/05/23 05:31:23;;;;;;;0.65;0.50;;;;;13.10;100158.00;;;;5049215;28;20097;-67
2021/05/23 05:33:49;;;;;;;1.38;0.60;;;;;13.10;100160.00;;;;5049060;28;20021;-69
2021/05/23 05:36:16;;;;;;;0.95;0.73;;;;;13.10;100164.00;;;;5049661;28;20036;-67
2021/05/23 05:38:42;;;;;;;0.38;0.38;;;;;13.00;100155.00;;;;5049562;28;20021;-68
2021/05/23 05:41:09;;;;;;;0.30;0.30;;;;;13.00;100152.00;;;;5049046;28;20048;-67
2021/05/23 05:43:35;;;;;;;1.25;0.60;;;;;12.90;100149.00;;;;5049453;28;20047;-67
2021/05/23 05:46:02;;;;;;;1.40;0.50;;;;;12.80;100139.00;;;;5049108;28;20117;-69
2021/05/23 05:48:28;;;;;;;0.82;0.40;;;;;12.80;100143.00;;;;5048211;28;20113;-68
2021/05/23 05:50:55;;;;;;;5.82;0.60;;;;;12.80;100139.00;;;;5048755;28;20036;-69
2021/05/23 05:53:21;;;;;;;1.60;0.70;;;;;12.80;100146.00;;;;5048873;28;20067;-69
2021/05/23 05:55:48;;;;;;;0.98;0.30;;;;;12.70;100130.00;;;;5048223;28;20024;-69
2021/05/23 05:58:14;;;;;;;0.40;0.40;;;;;12.60;100122.00;;;;5048791;28;20040;-68
2021/05/23 06:00:41;;;;;;;0.30;0.30;;;;;12.60;100130.00;;;;5049354;28;20064;-68
2021/05/23 06:03:07;;;;;;;5.28;0.50;;;;;12.60;100125.00;;;;5046707;28;20021;-69
2021/05/23 06:05:34;;;;;;;0.80;0.30;;;;;12.60;100125.00;;;;5048720;28;20021;-70
2021/05/23 06:08:00;;;;;;;0.70;0.40;;;;;12.60;100106.00;;;;5048721;28;20029;-68
2021/05/23 06:10:27;;;;;;;1.85;0.50;;;;;12.60;100109.00;;;;5049250;28;20036;-69
2021/05/23 06:12:54;;;;;;;0.30;0.30;;;;;12.70;100109.00;;;;5048357;28;20100;-69
2021/05/23 06:15:20;;;;;;;0.30;0.30;;;;;12.90;100117.00;;;;5048675;28;20025;-69
2021/05/23 06:17:47;;;;;;;2.60;0.30;;;;;12.90;100118.00;;;;5047882;28;20369;-70
2021/05/23 06:20:14;;;;;;;1.23;0.30;;;;;12.80;100123.00;;;;5048216;28;20025;-68
2021/05/23 06:22:41;;;;;;;2.40;0.40;;;;;12.70;100108.00;;;;5048493;28;20018;-68
2021/05/23 06:25:08;;;;;;;0.40;0.40;;;;;12.80;100098.00;;;;5047243;28;20032;-68
2021/05/23 06:27:35;;;;;;;0.35;0.30;;;;;12.80;100088.00;;;;5048524;28;20029;-68
2021/05/23 06:30:03;;;;;;;0.50;0.30;;;;;12.80;100099.00;;;;5047540;28;20147;-69
2021/05/23 06:32:29;;;;;;;0.93;0.28;;;;;12.70;100096.00;;;;5047895;28;20544;-68
2021/05/23 06:34:56;;;;;;;1.35;0.50;;;;;12.80;100085.00;;;;5048027;28;20055;-69
2021/05/23 06:37:23;;;;;;;1.17;0.40;;;;;12.80;100106.00;;;;5048616;28;20040;-67
2021/05/23 06:39:49;;;;;;;1.13;0.40;;;;;12.80;100103.00;;;;5048161;28;20021;-68
2021/05/23 06:42:16;;;;;;;1.90;0.35;;;;;12.90;100091.00;;;;5047894;28;20027;-69
2021/05/23 06:44:42;;;;;;;1.02;0.30;;;;;12.90;100087.00;;;;5047801;28;20013;-68
2021/05/23 06:47:09;;;;;;;2.63;0.63;;;;;12.80;100101.00;;;;5047872;28;20041;-67
2021/05/23 06:49:36;;;;;;;1.05;0.30;;;;;12.80;100097.00;;;;5047414;28;20045;-68
2021/05/23 06:52:03;;;;;;;0.30;0.30;;;;;12.90;100095.00;;;;5047892;28;20040;-69
2021/05/23 06:54:29;;;;;;;2.05;0.30;;;;;12.90;100092.00;;;;5047988;28;20093;-68
2021/05/23 06:56:56;;;;;;;4.38;0.50;;;;;12.90;100076.00;;;;5047762;28;20021;-68
2021/05/23 06:59:25;;;;;;;0.63;0.35;;;;;12.90;100082.00;;;;5047349;28;20458;-68
2021/05/23 07:01:52;;;;;;;0.90;0.30;;;;;13.00;100076.00;;;;5047663;28;20032;-68
2021/05/23 07:04:18;;;;;;;2.40;0.47;;;;;13.00;100081.00;;;;5047863;28;20025;-68
2021/05/23 07:06:45;;;;;;;1.45;0.32;;;;;13.00;100070.00;;;;5047724;28;20028;-68
2021/05/23 07:09:11;;;;;;;0.70;0.40;;;;;12.90;100069.00;;;;5047305;28;20580;-69
2021/05/23 07:11:38;;;;;;;0.85;0.30;;;;;12.90;100083.00;;;;5048415;28;20452;-67
2021/05/23 07:14:04;;;;;;;0.35;0.35;;;;;12.90;100078.00;;;;5047088;28;20021;-67
2021/05/23 07:16:31;;;;;;;2.00;0.35;;;;;12.80;100068.00;;;;5047570;28;20033;-70
2021/05/23 07:18:57;;;;;;;0.90;0.40;;;;;12.70;100079.00;;;;5047435;28;20066;-68
2021/05/23 07:21:24;;;;;;;0.30;0.30;;;;;12.70;100078.00;;;;5048006;28;20464;-67
2021/05/23 07:23:51;;;;;;;0.73;0.28;;;;;12.80;100089.00;;;;5047216;28;20104;-67
2021/05/23 07:26:19;;;;;;;0.30;0.28;;;;;12.70;100079.00;;;;5047077;28;20032;-69
2021/05/23 07:28:46;;;;;;;4.03;0.40;;;;;12.70;100086.00;;;;5047027;28;20037;-68
2021/05/23 07:31:13;;;;;;;0.40;0.40;;;;;12.70;100075.00;;;;5046114;28;20100;-68
2021/05/23 07:33:40;;;;;;;0.30;0.30;;;;;12.60;100062.00;;;;5047079;28;20028;-68
2021/05/23 07:36:07;;;;;;;3.33;0.77;;;;;12.70;100091.00;;;;5046857;28;20108;-69
2021/05/23 07:38:34;;;;;;;2.47;0.30;;;;;12.60;100073.00;;;;5046865;28;20036;-68
2021/05/23 07:41:01;;;;;;;1.10;0.47;;;;;12.60;100084.00;;;;5046849;28;20035;-69
2021/05/23 07:43:27;;;;;;;0.85;0.35;;;;;12.60;100099.00;;;;5046868;28;20033;-68
2021/05/23 07:45:54;;;;;;;1.02;0.40;;;;;12.70;100094.00;;;;5046709;28;20571;-69
2021/05/23 07:48:21;;;;;;;1.38;0.40;;;;;12.60;100094.00;;;;5046508;28;20049;-66
2021/05/23 07:50:47;;;;;;;5.72;0.40;;;;;12.60;100079.00;;;;5046802;28;20029;-67
2021/05/23 07:53:15;;;;;;;1.20;0.40;;;;;12.60;100062.00;;;;5046518;28;20587;-68
2021/05/23 07:55:42;;;;;;;0.80;0.32;;;;;12.50;100082.00;;;;5046872;28;20084;-67
2021/05/23 07:58:09;;;;;;;0.82;0.20;;;;;12.40;100077.00;;;;5046279;28;20108;-69
2021/05/23 08:00:36;;;;;;;0.50;0.30;;;;;12.40;100070.00;;;;5046375;28;20029;-69
2021/05/23 08:03:02;;;;;;;4.38;0.40;;;;;12.30;100056.00;;;;5046507;28;20100;-68
2021/05/23 08:05:29;;;;;;;0.63;0.35;;;;;12.30;100055.00;;;;5046085;28;20032;-68
2021/05/23 08:07:55;;;;;;;0.55;0.30;;;;;12.20;100059.00;;;;5046623;28;20036;-70
2021/05/23 08:10:22;;;;;;;10.20;1.48;;;;;12.20;100062.00;;;;5046771;28;20488;-68
2021/05/23 08:12:49;;;;;;;0.50;0.40;;;;;12.50;100057.00;;;;5046483;28;20379;-69
2021/05/23 08:15:16;;;;;;;0.80;0.20;;;;;12.40;100063.00;;;;5046340;28;20052;-67
2021/05/23 08:17:45;;;;;;;1.85;0.38;;;;;12.40;100052.00;;;;5046112;28;20032;-69
2021/05/23 08:20:14;;;;;;;4.50;0.40;;;;;12.50;100058.00;;;;5046536;28;20032;-69
2021/05/23 08:22:41;;;;;;;0.73;0.30;;;;;12.40;100052.00;;;;5045980;28;20056;-67
2021/05/23 08:25:08;;;;;;;0.50;0.32;;;;;12.50;100052.00;;;;5046135;28;20103;-69
2021/05/23 08:27:35;;;;;;;0.95;0.60;;;;;12.50;100059.00;;;;5046139;28;20035;-67
2021/05/23 08:30:01;;;;;;;0.30;0.25;;;;;12.40;100039.00;;;;5046026;28;20055;-68
2021/05/23 08:32:28;;;;;;;0.32;0.30;;;;;12.30;100031.00;;;;5046149;28;20025;-68
2021/05/23 08:34:54;;;;;;;2.97;0.93;;;;;12.50;100042.00;;;;5046157;28;20359;-69
2021/05/23 08:37:21;;;;;;;0.20;0.20;;;;;12.50;100040.00;;;;5045683;28;20029;-67
2021/05/23 08:39:47;;;;;;;3.33;0.40;;;;;12.60;100035.00;;;;5046220;28;20048;-67
2021/05/23 08:42:14;;;;;;;0.98;0.45;;;;;12.60;100036.00;;;;5046055;28;20021;-67
2021/05/23 08:44:41;;;;;;;0.82;0.40;;;;;12.60;100035.00;;;;5046211;28;20112;-68
2021/05/23 08:47:08;;;;;;;0.80;0.45;;;;;12.40;100053.00;;;;5045790;28;20045;-69
2021/05/23 08:49:35;;;;;;;3.55;0.40;;;;;12.30;100057.00;;;;5046014;28;20017;-68
2021/05/23 08:52:01;;;;;;;0.20;0.20;;;;;12.30;100043.00;;;;5045824;28;20028;-68
2021/05/23 08:54:29;;;;;;;1.17;0.38;;;;;12.40;100053.00;;;;5045637;28;20021;-70
2021/05/23 08:56:55;;;;;;;2.67;0.50;;;;;12.40;100043.00;;;;5046050;28;20079;-69
2021/05/23 08:59:22;;;;;;;1.02;0.30;;;;;12.30;100046.00;;;;5046027;28;20128;-68
2021/05/23 09:01:48;;;;;;;4.72;0.47;;;;;12.30;100042.00;;;;5045976;28;20103;-68
2021/05/23 09:04:20;;;;;;;0.40;0.38;;;;;12.30;100047.00;;;;5046151;28;20027;-67
2021/05/23 09:06:47;;;;;;;3.55;0.40;;;;;12.30;100059.00;;;;5045913;28;20563;-69
2021/05/23 09:09:15;;;;;;;0.63;0.40;;;;;12.30;100049.00;;;;5045869;28;20029;-68
2021/05/23 09:11:53;;;;;;;6.00;0.38;;;;;12.30;100050.00;;;;5045735;28;20132;-68
2021/05/23 09:14:32;;;;;;;1.88;0.28;;;;;12.30;100045.00;;;;5045441;28;20036;-68
2021/05/23 09:16:58;;;;;;;3.50;0.30;;;;;12.30;100032.00;;;;5045462;28;20029;-68
2021/05/23 09:19:26;;;;;;;0.30;0.30;;;;;12.40;100029.00;;;;5045744;28;20645;-69
2021/05/23 09:21:54;;;;;;;0.43;0.30;;;;;12.40;100034.00;;;;5045942;28;20036;-67
2021/05/23 09:24:20;;;;;;;0.32;0.30;;;;;12.40;100039.00;;;;5045368;28;20052;-69
2021/05/23 09:26:49;;;;;;;3.33;0.50;;;;;12.30;100047.00;;;;5045689;28;20067;-68
2021/05/23 09:29:22;;;;;;;1.85;0.80;;;;;12.30;100042.00;;;;5045181;28;20044;-70
2021/05/23 09:32:05;;;;;;;1.45;0.88;;;;;12.30;100048.00;;;;5045523;28;20025;-70
2021/05/23 09:34:31;;;;;;;1.10;0.60;;;;;12.30;100046.00;;;;5046296;28;20021;-69
2021/05/23 09:37:00;;;;;;;1.52;0.88;;;;;12.30;100041.00;;;;5045120;28;20480;-68
2021/05/23 09:39:38;;;;;;;3.92;0.80;;;;;12.20;100047.00;;;;5045694;28;20130;-68
2021/05/23 09:42:06;;;;;;;1.38;0.70;;;;;12.10;100046.00;;;;5044787;28;20086;-69
2021/05/23 09:44:33;;;;;;;7.25;1.08;;;;;12.10;100047.00;;;;5045396;28;20024;-68
2021/05/23 09:47:00;;;;;;;0.77;0.50;;;;;12.20;100058.00;;;;5045281;28;20120;-70
2021/05/23 09:49:29;;;;;;;0.65;0.60;;;;;12.10;100046.00;;;;5045108;28;20025;-69
2021/05/23 09:52:00;;;;;;;2.85;0.55;;;;;12.10;100048.00;;;;5045387;28;20502;-68
2021/05/23 09:54:29;;;;;;;2.38;0.60;;;;;12.20;100044.00;;;;5045567;28;20052;-68
2021/05/23 09:56:56;;;;;;;0.55;0.45;;;;;12.30;100059.00;;;;5049802;28;20016;-68
2021/05/23 09:59:26;;;;;;;1.05;0.60;;;;;12.20;100063.00;;;;5048997;28;20052;-68
2021/05/23 10:02:04;;;;;;;2.10;0.60;;;;;12.20;100066.00;;;;5048772;28;20117;-70
2021/05/23 10:04:30;;;;;;;9.05;1.75;;;;;12.20;100065.00;;;;5048872;28;20028;-68
2021/05/23 10:07:02;;;;;;;4.55;0.60;;;;;12.30;100056.00;;;;5048149;28;20058;-70
2021/05/23 10:09:29;;;;;;;0.38;0.30;;;;;12.30;100073.00;;;;5049274;28;20103;-69
2021/05/23 10:11:56;;;;;;;3.03;0.50;;;;;12.20;100062.00;;;;5049046;28;20029;-69
2021/05/23 10:14:23;;;;;;;3.72;0.68;;;;;12.10;100073.00;;;;5048442;28;20031;-69
2021/05/23 10:16:51;;;;;;;1.23;0.40;;;;;12.20;100081.00;;;;5048275;28;20020;-67
2021/05/23 10:19:24;;;;;;;1.70;0.60;;;;;12.30;100101.00;;;;5048217;28;20021;-65
2021/05/23 10:21:53;;;;;;;1.90;0.30;;;;;12.30;100078.00;;;;5049263;28;20536;-69
2021/05/23 10:24:26;;;;;;;1.98;0.55;;;;;12.20;100092.00;;;;5048884;28;20497;-67
2021/05/23 10:27:00;;;;;;;0.57;0.35;;;;;12.40;100104.00;;;;5048308;28;20029;-67
2021/05/23 10:29:27;;;;;;;1.63;0.52;;;;;12.40;100108.00;;;;5048061;28;20191;-67
2021/05/23 10:32:04;;;;;;;2.53;0.40;;;;;12.30;100119.00;;;;5047355;28;20017;-68
2021/05/23 10:34:42;;;;;;;0.55;0.55;;;;;12.30;100124.00;;;;5048590;28;20024;-69
2021/05/23 10:37:09;;;;;;;0.82;0.47;;;;;12.50;100115.00;;;;5047620;28;20033;-68
2021/05/23 10:39:42;;;;;;;1.52;0.57;;;;;12.80;100119.00;;;;5047917;28;20048;-70
2021/05/23 10:42:13;;;;;;;3.85;1.02;;;;;13.70;100051.00;;;;5047623;28;20021;-68
2021/05/23 10:44:48;;;;;;;0.47;0.32;;;;;15.10;99984.00;;;;5047841;28;20392;-69
2021/05/23 10:47:23;;;;;;;2.03;0.50;;;;;16.60;99959.00;;;;5047364;28;20052;-69
2021/05/23 10:49:56;;;;;;;3.00;0.60;;;;;17.30;99966.00;;;;5048105;28;20384;-68
2021/05/23 10:52:27;;;;;;;2.03;0.38;;;;;17.20;99994.00;;;;5048034;28;20042;-69
2021/05/23 10:55:05;;;;;;;2.92;0.45;;;;;16.40;100020.00;;;;5047416;28;20475;-67
2021/05/23 10:57:52;;;;;;;3.25;0.77;;;;;17.30;100043.00;;;;5047961;28;20161;-70
2021/05/23 11:00:27;;;;;;;0.73;0.50;;;;;16.10;100104.00;;;;5047845;28;20025;-67
2021/05/23 11:02:56;;;;;;;2.40;0.45;;;;;15.60;100104.00;;;;5047316;28;20025;-67
2021/05/23 11:05:30;;;;;;;0.80;0.60;;;;;15.60;100065.00;;;;5046785;28;20029;-69
2021/05/23 11:08:02;;;;;;;0.60;0.60;;;;;16.30;100093.00;;;;5046959;28;20036;-69
2021/05/23 11:10:47;;;;;;;2.95;0.50;;;;;17.60;99987.00;;;;5047971;28;20024;-69
2021/05/23 11:13:16;;;;;;;1.10;0.60;;;;;19.10;99982.00;;;;5047253;28;20678;-69
2021/05/23 11:15:48;;;;;;;4.47;0.70;;;;;19.80;99946.00;;;;5047680;28;20021;-69
2021/05/23 11:18:19;;;;;;;1.88;0.65;;;;;19.90;100009.00;;;;5047280;28;20025;-69
2021/05/23 11:21:21;;;;;;;1.08;0.80;;;;;20.90;99936.00;;;;5047487;28;20028;-68
2021/05/23 11:23:56;;;;;;;2.47;0.55;;;;;20.50;99938.00;;;;5004869;28;20033;-68
2021/05/23 11:26:25;;;;;;;5.30;0.63;;;;;20.70;99922.00;;;;5037006;28;20506;-70
2021/05/23 11:28:54;;;;;;;3.42;0.50;;;;;21.50;99925.00;;;;5047034;28;20029;-68
2021/05/23 11:31:28;;;;;;;6.68;0.93;;;;;21.90;99904.00;;;;5046888;28;20052;-67
2021/05/23 11:33:56;;;;;;;5.72;0.45;;;;;21.70;99888.00;;;;5047150;28;20025;-67
2021/05/23 11:36:25;;;;;;;4.85;0.40;;;;;22.00;99926.00;;;;5046562;28;20021;-69
2021/05/23 11:38:58;;;;;;;1.48;0.40;;;;;22.50;99968.00;;;;5047108;28;20035;-69
2021/05/23 11:41:28;;;;;;;3.50;0.52;;;;;22.60;99980.00;;;;5047370;28;20056;-69
2021/05/23 11:43:56;;;;;;;1.10;0.60;;;;;22.20;99986.00;;;;5046841;28;20025;-68
2021/05/23 11:46:24;;;;;;;3.22;1.02;;;;;22.50;99990.00;;;;5046782;28;20064;-69
2021/05/23 11:48:51;;;;;;;1.67;0.50;;;;;22.30;100004.00;;;;5046547;28;20151;-69
2021/05/23 11:51:25;;;;;;;5.78;0.60;;;;;22.70;99970.00;;;;5046708;28;20409;-69
2021/05/23 11:53:57;;;;;;;2.42;0.65;;;;;22.80;99980.00;;;;5046864;28;20513;-69
2021/05/23 11:56:26;;;;;;;7.13;0.85;;;;;23.30;99991.00;;;;5046558;28;20464;-69
2021/05/23 11:58:57;;;;;;;4.70;0.60;;;;;23.30;100017.00;;;;5046596;28;20079;-68
2021/05/23 12:01:54;;;;;;;0.80;0.65;;;;;23.20;100033.00;;;;5046201;28;20025;-67
2021/05/23 12:04:22;;;;;;;5.38;0.50;;;;;23.90;100046.00;;;;5041938;28;20028;-69
2021/05/23 12:06:51;;;;;;;0.52;0.50;;;;;23.60;100052.00;;;;5047119;28;20029;-70
2021/05/23 12:09:32;;;;;;;11.60;0.80;;;;;24.10;100068.00;;;;5046455;28;20484;-69
2021/05/23 12:12:03;;;;;;;5.75;0.60;;;;;24.10;100027.00;;;;5045880;28;20418;-69
2021/05/23 12:14:36;;;;;;;1.05;0.55;;;;;23.80;99980.00;;;;5045702;28;20567;-69
2021/05/23 12:17:13;;;;;;;9.77;1.00;;;;;24.00;100003.00;;;;5045844;28;20028;-68